Time;durP1;ratioP1;P1;durP2;ratioP2;P2;SDS_P1;SDS_P2;PMS_P1;PMS_P2;Temp;Humidity;BMP_temperature;BMP_pressure;BME280_temperature;BME280_humidity;BME280_pressure;Samples;Min_cycle;Max_cycle;Signal;HPM_P1;HPM_P2
2024/01/17 00:00:16;;;;;;;0.77;0.60;;;-1.20;99.90;;;;;;5045213;23;20151;-92
2024/01/17 00:02:17;;;;;;;3.40;1.03;;;-1.20;99.90;;;;;;5021324;23;20233;-93
2024/01/17 00:04:17;;;;;;;1.50;0.90;;;-1.00;99.90;;;;;;5021710;23;20601;-93
2024/01/17 00:06:18;;;;;;;6.43;0.83;;;-0.80;99.90;;;;;;4998089;23;20183;-93
2024/01/17 00:08:19;;;;;;;1.40;1.07;;;-0.80;99.90;;;;;;4998058;23;20492;-93
2024/01/17 00:10:20;;;;;;;2.53;0.83;;;-0.80;99.90;;;;;;5045282;23;20182;-93
2024/01/17 00:12:21;;;;;;;2.63;1.77;;;-0.80;99.90;;;;;;4997975;23;20487;-93
2024/01/17 00:14:21;;;;;;;6.17;1.20;;;-0.90;99.90;;;;;;5021816;23;20163;-92
2024/01/17 00:16:23;;;;;;;5.23;0.70;;;-0.90;99.90;;;;;;5021449;23;20510;-92
2024/01/17 00:18:24;;;;;;;1.83;0.83;;;-0.90;99.90;;;;;;5022036;23;20182;-92
2024/01/17 00:20:25;;;;;;;4.50;0.93;;;-0.80;99.90;;;;;;5022300;23;20155;-94
2024/01/17 00:22:26;;;;;;;4.93;1.67;;;-0.90;99.90;;;;;;4997895;23;20215;-94
2024/01/17 00:24:27;;;;;;;3.83;1.53;;;-0.80;99.90;;;;;;5021561;23;20155;-93
2024/01/17 00:26:28;;;;;;;2.43;1.47;;;-0.70;99.90;;;;;;5021511;23;20350;-93
2024/01/17 00:28:29;;;;;;;2.87;1.07;;;-0.70;99.90;;;;;;4997843;23;20195;-93
2024/01/17 00:30:30;;;;;;;1.30;0.87;;;-0.80;99.90;;;;;;5021565;23;20156;-93
2024/01/17 00:32:34;;;;;;;8.13;1.63;;;-0.90;99.90;;;;;;5045338;23;20154;-92
2024/01/17 00:34:35;;;;;;;2.83;1.57;;;-0.90;99.90;;;;;;4997782;23;20155;-92
2024/01/17 00:36:36;;;;;;;2.60;1.30;;;-0.90;99.90;;;;;;5021486;23;20171;-94
2024/01/17 00:38:37;;;;;;;4.30;1.50;;;-0.90;99.90;;;;;;5045214;23;20185;-94
2024/01/17 00:40:38;;;;;;;1.70;1.10;;;-0.90;99.90;;;;;;4997895;23;20506;-91
2024/01/17 00:42:40;;;;;;;0.90;0.90;;;-0.80;99.90;;;;;;4998238;23;20170;-93
2024/01/17 00:44:41;;;;;;;3.07;1.87;;;-0.70;99.90;;;;;;5021640;23;20207;-92
2024/01/17 00:46:42;;;;;;;2.63;1.57;;;-0.60;99.90;;;;;;4997822;23;20183;-93
2024/01/17 00:48:43;;;;;;;1.50;1.07;;;-0.40;99.90;;;;;;5021731;23;20187;-93
2024/01/17 00:50:44;;;;;;;2.87;1.23;;;-0.40;99.90;;;;;;5045123;23;20245;-94
2024/01/17 00:52:45;;;;;;;1.50;1.03;;;-0.30;99.90;;;;;;4998056;23;20571;-93
2024/01/17 00:54:46;;;;;;;2.43;1.83;;;-0.30;99.90;;;;;;4998119;23;20156;-94
2024/01/17 00:56:47;;;;;;;1.57;1.07;;;-0.20;99.90;;;;;;5011859;23;20331;-93
2024/01/17 00:58:48;;;;;;;2.93;1.10;;;-0.10;99.90;;;;;;5045577;23;20161;-93
2024/01/17 01:00:49;;;;;;;2.13;1.40;;;-0.10;99.90;;;;;;5020990;23;20146;-94
2024/01/17 01:02:53;;;;;;;3.03;1.07;;;-0.20;99.90;;;;;;5021317;23;20168;-93
2024/01/17 01:04:53;;;;;;;1.37;1.10;;;0.00;99.90;;;;;;5021370;23;20490;-92
2024/01/17 01:06:54;;;;;;;2.33;1.27;;;0.10;99.90;;;;;;5044934;23;20177;-92
2024/01/17 01:08:55;;;;;;;1.10;0.87;;;-0.10;99.90;;;;;;5021219;23;20191;-92
2024/01/17 01:10:56;;;;;;;1.70;1.10;;;-0.10;99.90;;;;;;5021365;23;20162;-93
2024/01/17 01:12:57;;;;;;;9.03;1.53;;;-0.20;99.90;;;;;;5045128;23;20155;-94
2024/01/17 01:15:01;;;;;;;2.13;1.30;;;-0.10;99.90;;;;;;5021196;23;20159;-93
2024/01/17 01:17:01;;;;;;;2.60;0.63;;;-0.10;99.90;;;;;;5021070;23;20174;-93
2024/01/17 01:19:04;;;;;;;2.07;0.97;;;0.00;99.90;;;;;;5044841;23;20154;-93
2024/01/17 01:21:05;;;;;;;2.07;1.00;;;-0.30;99.90;;;;;;5021168;23;20155;-93
2024/01/17 01:23:06;;;;;;;1.17;0.97;;;-0.50;99.90;;;;;;5021716;23;20163;-93
2024/01/17 01:25:08;;;;;;;7.43;1.80;;;-0.70;99.90;;;;;;4997081;23;20219;-95
2024/01/17 01:27:09;;;;;;;3.13;1.33;;;-0.60;99.90;;;;;;5021056;23;20590;-93
2024/01/17 01:29:10;;;;;;;4.40;1.00;;;-0.70;99.90;;;;;;5020731;23;20195;-93
2024/01/17 01:31:11;;;;;;;1.50;0.83;;;-0.70;99.90;;;;;;5020898;23;20159;-93
2024/01/17 01:33:11;;;;;;;2.17;0.93;;;-0.70;99.90;;;;;;4997132;23;20208;-93
2024/01/17 01:35:12;;;;;;;2.27;0.77;;;-0.80;99.90;;;;;;5044860;23;20159;-94
2024/01/17 01:37:13;;;;;;;3.03;1.00;;;-0.90;99.90;;;;;;5044845;23;20158;-92
2024/01/17 01:39:15;;;;;;;1.30;1.20;;;-1.00;99.90;;;;;;5021287;23;20174;-93
2024/01/17 01:41:16;;;;;;;1.60;0.87;;;-1.10;99.90;;;;;;5044669;23;20161;-94
2024/01/17 01:43:21;;;;;;;0.50;0.50;;;-1.10;99.90;;;;;;5044890;23;20158;-93
2024/01/17 01:45:22;;;;;;;1.20;0.57;;;-1.20;99.90;;;;;;5020844;23;20171;-95
2024/01/17 01:47:23;;;;;;;1.33;0.80;;;-1.20;99.90;;;;;;5021110;23;20162;-94
2024/01/17 01:49:25;;;;;;;2.90;1.33;;;-1.20;99.90;;;;;;5044768;23;20197;-91
2024/01/17 01:51:27;;;;;;;1.13;0.90;;;-1.20;99.90;;;;;;5020733;23;20159;-93
2024/01/17 01:53:29;;;;;;;1.87;0.80;;;-1.20;99.90;;;;;;4997262;23;20156;-93
2024/01/17 01:55:30;;;;;;;4.20;0.83;;;-1.20;99.90;;;;;;5044749;23;20237;-94
2024/01/17 01:57:33;;;;;;;0.73;0.73;;;-1.20;99.90;;;;;;5044656;23;20197;-94
2024/01/17 01:59:34;;;;;;;2.83;1.07;;;-1.30;99.90;;;;;;5044565;23;20229;-93
2024/01/17 02:01:36;;;;;;;1.93;0.70;;;-1.30;99.90;;;;;;5020521;23;20586;-93
2024/01/17 02:03:40;;;;;;;4.27;1.50;;;-1.20;99.90;;;;;;5020784;23;20155;-93
2024/01/17 02:05:42;;;;;;;3.30;1.60;;;-1.30;99.90;;;;;;5044741;23;20265;-94
2024/01/17 02:07:43;;;;;;;1.90;1.13;;;-1.30;99.90;;;;;;5020923;23;20187;-93
2024/01/17 02:09:44;;;;;;;1.07;0.63;;;-1.30;99.90;;;;;;5044798;23;20197;-93
2024/01/17 02:11:46;;;;;;;14.77;0.93;;;-1.20;99.90;;;;;;5044871;23;20150;-93
2024/01/17 02:13:48;;;;;;;1.07;0.27;;;-1.40;99.90;;;;;;5021048;23;20177;-93
2024/01/17 02:15:49;;;;;;;3.70;1.30;;;-1.30;99.90;;;;;;5044648;23;20176;-94
2024/01/17 02:17:50;;;;;;;0.80;0.70;;;-1.30;99.90;;;;;;5020775;23;20621;-93
2024/01/17 02:19:52;;;;;;;0.40;0.40;;;-1.40;99.90;;;;;;5020669;23;20211;-93
2024/01/17 02:21:52;;;;;;;7.37;0.87;;;-1.50;99.90;;;;;;5044943;23;20146;-93
2024/01/17 02:23:53;;;;;;;1.50;1.00;;;-1.50;99.90;;;;;;5020690;23;20159;-93
2024/01/17 02:25:56;;;;;;;0.93;0.93;;;-1.40;99.90;;;;;;5020905;23;20167;-93
2024/01/17 02:27:57;;;;;;;1.60;1.03;;;-1.30;99.90;;;;;;5020899;23;20190;-93
2024/01/17 02:29:58;;;;;;;1.07;0.77;;;-1.30;99.90;;;;;;5020737;23;20637;-93
2024/01/17 02:31:59;;;;;;;0.50;0.40;;;-1.30;99.90;;;;;;5020587;23;20311;-94
2024/01/17 02:34:00;;;;;;;1.27;0.63;;;-1.30;99.90;;;;;;5021068;23;20155;-93
2024/01/17 02:36:01;;;;;;;2.13;1.07;;;-1.20;99.90;;;;;;5044423;23;20188;-93
2024/01/17 02:38:02;;;;;;;4.30;0.83;;;-1.10;99.90;;;;;;5020799;23;20155;-93
2024/01/17 02:40:03;;;;;;;1.97;1.10;;;-1.00;99.90;;;;;;5020975;23;20155;-93
2024/01/17 02:42:04;;;;;;;0.67;0.67;;;-0.70;99.90;;;;;;5044306;23;20154;-93
2024/01/17 02:44:05;;;;;;;0.73;0.73;;;-0.60;99.90;;;;;;5044547;23;20162;-93
2024/01/17 02:46:06;;;;;;;1.63;0.90;;;-0.30;99.90;;;;;;5045436;23;20178;-94
2024/01/17 02:48:07;;;;;;;1.20;0.80;;;-0.30;99.90;;;;;;5022285;23;20234;-93
2024/01/17 02:50:11;;;;;;;1.63;0.97;;;-0.20;99.90;;;;;;5022370;23;20622;-94
2024/01/17 02:52:12;;;;;;;1.33;1.07;;;-0.20;99.90;;;;;;5022280;23;20238;-95
2024/01/17 02:54:12;;;;;;;4.43;1.20;;;-0.10;99.90;;;;;;5022480;23;20222;-94
2024/01/17 02:56:14;;;;;;;0.43;0.27;;;-0.10;99.90;;;;;;5046155;23;20190;-94
2024/01/17 02:58:16;;;;;;;3.33;1.57;;;-0.20;99.90;;;;;;5046479;23;20163;-93
2024/01/17 03:00:17;;;;;;;4.73;1.40;;;-0.10;99.90;;;;;;5046624;23;20210;-94
2024/01/17 03:02:18;;;;;;;2.43;1.23;;;0.00;99.90;;;;;;5022644;23;20163;-95
2024/01/17 03:04:19;;;;;;;3.67;1.80;;;0.10;99.90;;;;;;5022267;23;20181;-93
2024/01/17 03:06:19;;;;;;;5.87;1.57;;;0.10;99.90;;;;;;5046401;23;20261;-93
2024/01/17 03:08:20;;;;;;;2.73;0.93;;;0.10;99.90;;;;;;5046210;23;20190;-92
2024/01/17 03:10:21;;;;;;;1.07;0.80;;;0.00;99.90;;;;;;5046568;23;20237;-94
2024/01/17 03:12:22;;;;;;;1.93;0.90;;;0.10;99.90;;;;;;5022365;23;20170;-93
2024/01/17 03:14:23;;;;;;;1.90;1.10;;;0.10;99.90;;;;;;5046049;23;20181;-93
2024/01/17 03:16:24;;;;;;;2.07;0.93;;;0.10;99.90;;;;;;5045676;23;20583;-93
2024/01/17 03:18:25;;;;;;;2.27;1.10;;;0.10;99.90;;;;;;5045893;23;20158;-95
2024/01/17 03:20:26;;;;;;;2.97;1.50;;;0.00;99.90;;;;;;5022214;23;20158;-93
2024/01/17 03:22:26;;;;;;;2.30;1.10;;;0.00;99.90;;;;;;5045823;23;20229;-94
2024/01/17 03:24:27;;;;;;;2.07;1.23;;;0.00;99.90;;;;;;5022408;23;20155;-93
2024/01/17 03:26:28;;;;;;;2.83;1.20;;;-0.10;99.90;;;;;;5021832;23;20669;-93
2024/01/17 03:28:29;;;;;;;3.63;1.33;;;-0.10;99.90;;;;;;5022130;23;20193;-93
2024/01/17 03:30:30;;;;;;;3.93;1.33;;;0.00;99.90;;;;;;5045462;23;20178;-93
2024/01/17 03:32:31;;;;;;;1.73;0.77;;;-0.10;99.90;;;;;;5021770;23;20162;-94
2024/01/17 03:34:32;;;;;;;1.70;0.90;;;0.00;99.90;;;;;;5022275;23;20159;-95
2024/01/17 03:36:33;;;;;;;3.17;1.03;;;0.00;99.90;;;;;;5021665;23;20305;-93
2024/01/17 03:38:34;;;;;;;3.10;1.43;;;0.00;99.90;;;;;;5045608;23;20158;-94
2024/01/17 03:40:34;;;;;;;1.93;1.23;;;-0.10;99.90;;;;;;5021862;23;20162;-92
2024/01/17 03:42:35;;;;;;;3.37;1.87;;;-0.10;99.90;;;;;;5021915;23;20161;-92
2024/01/17 03:44:36;;;;;;;1.43;0.80;;;-0.10;99.90;;;;;;5045649;23;20155;-94
2024/01/17 03:46:39;;;;;;;6.60;1.10;;;0.00;99.90;;;;;;5021843;23;20171;-92
2024/01/17 03:48:39;;;;;;;1.10;0.70;;;0.00;99.90;;;;;;5045521;23;20528;-95
2024/01/17 03:50:40;;;;;;;0.70;0.70;;;-0.10;99.90;;;;;;5021536;23;20166;-94
2024/01/17 03:52:41;;;;;;;5.83;1.00;;;-0.10;99.90;;;;;;5021658;23;20155;-93
2024/01/17 03:54:42;;;;;;;3.67;1.40;;;-0.20;99.90;;;;;;5021947;23;20210;-94
2024/01/17 03:56:43;;;;;;;0.83;0.73;;;-0.20;99.90;;;;;;5045478;23;20246;-93
2024/01/17 03:58:44;;;;;;;0.83;0.63;;;-0.30;99.90;;;;;;5045737;23;20582;-95
2024/01/17 04:00:45;;;;;;;2.53;1.53;;;-0.30;99.90;;;;;;5045717;23;20648;-93
2024/01/17 04:02:45;;;;;;;0.83;0.50;;;-0.30;99.90;;;;;;5021530;23;20147;-95
2024/01/17 04:04:47;;;;;;;4.23;0.93;;;-0.40;99.90;;;;;;5021776;23;20155;-95
2024/01/17 04:06:48;;;;;;;1.03;0.70;;;-0.40;99.90;;;;;;5069799;23;20172;-94
2024/01/17 04:08:49;;;;;;;1.63;0.93;;;-0.40;99.90;;;;;;5021665;23;20194;-94
2024/01/17 04:10:49;;;;;;;5.27;2.40;;;-0.30;99.90;;;;;;5021955;23;20159;-94
2024/01/17 04:12:50;;;;;;;4.83;0.87;;;-0.20;99.90;;;;;;5070002;23;20162;-92
2024/01/17 04:14:54;;;;;;;1.37;0.70;;;-0.20;99.90;;;;;;5045544;23;20575;-94
2024/01/17 04:16:55;;;;;;;3.87;0.97;;;-0.20;99.90;;;;;;5021585;23;20542;-95
2024/01/17 04:18:56;;;;;;;1.27;1.10;;;-0.40;99.90;;;;;;5021447;23;20185;-94
2024/01/17 04:21:01;;;;;;;0.50;0.43;;;-0.50;99.90;;;;;;5045656;23;20482;-93
2024/01/17 04:23:05;;;;;;;1.13;0.87;;;-0.20;99.90;;;;;;5045464;23;20154;-93
2024/01/17 04:25:07;;;;;;;5.30;0.93;;;0.00;99.90;;;;;;5022068;23;20147;-93
2024/01/17 04:27:08;;;;;;;1.50;1.03;;;-0.20;99.90;;;;;;5021245;23;20578;-95
2024/01/17 04:29:08;;;;;;;2.00;1.00;;;-0.30;99.90;;;;;;5069011;23;20233;-93
2024/01/17 04:31:09;;;;;;;18.83;0.87;;;-0.30;99.90;;;;;;5045253;23;20589;-92
2024/01/17 04:33:10;;;;;;;6.53;1.50;;;-0.30;99.90;;;;;;5069714;23;20157;-93
2024/01/17 04:35:17;;;;;;;3.40;2.13;;;-0.40;99.90;;;;;;5045240;23;20150;-93
2024/01/17 04:37:18;;;;;;;3.97;1.50;;;-0.40;99.90;;;;;;5045649;23;20533;-93
2024/01/17 04:39:19;;;;;;;1.93;1.03;;;-0.40;99.90;;;;;;5021363;23;20208;-95
2024/01/17 04:41:20;;;;;;;4.90;0.97;;;-0.40;99.90;;;;;;5021779;23;20557;-94
2024/01/17 04:43:22;;;;;;;7.40;1.50;;;-0.50;99.90;;;;;;5045354;23;20482;-94
2024/01/17 04:45:23;;;;;;;6.70;0.63;;;-0.50;99.90;;;;;;5044984;23;20226;-93
2024/01/17 04:47:26;;;;;;;2.50;1.13;;;-0.50;99.90;;;;;;5021903;23;20154;-93
2024/01/17 04:49:27;;;;;;;3.77;1.60;;;-0.30;99.90;;;;;;5045318;23;20277;-93
2024/01/17 04:51:28;;;;;;;8.07;1.60;;;0.30;99.90;;;;;;5021525;23;20308;-93
2024/01/17 04:53:29;;;;;;;1.60;1.17;;;1.00;99.90;;;;;;5021546;23;20163;-93
2024/01/17 04:55:30;;;;;;;3.93;1.47;;;1.00;99.90;;;;;;5045166;23;20178;-94
2024/01/17 04:57:31;;;;;;;3.13;0.70;;;0.60;99.90;;;;;;5021718;23;20202;-93
2024/01/17 04:59:32;;;;;;;4.97;1.43;;;0.20;99.90;;;;;;5045147;23;20534;-94
2024/01/17 05:01:33;;;;;;;7.03;1.67;;;-0.20;99.90;;;;;;5069437;23;20176;-93
2024/01/17 05:03:34;;;;;;;1.53;0.70;;;-0.40;99.90;;;;;;5021671;23;20155;-93
2024/01/17 05:05:37;;;;;;;1.43;0.73;;;-0.60;99.90;;;;;;5021484;23;20178;-93
2024/01/17 05:07:38;;;;;;;2.40;1.60;;;-0.50;99.90;;;;;;5045378;23;20153;-94
2024/01/17 05:09:39;;;;;;;2.47;1.00;;;-0.40;99.90;;;;;;5021278;23;20709;-93
2024/01/17 05:11:40;;;;;;;1.70;1.07;;;-0.40;99.90;;;;;;5021223;23;20155;-94
2024/01/17 05:13:41;;;;;;;5.43;1.43;;;-0.40;99.90;;;;;;5020907;23;20170;-94
2024/01/17 05:15:42;;;;;;;2.60;1.93;;;-0.20;99.90;;;;;;5021154;23;20200;-93
2024/01/17 05:17:43;;;;;;;1.07;0.97;;;-0.20;99.90;;;;;;5021257;23;20159;-93
2024/01/17 05:19:44;;;;;;;2.27;0.93;;;-0.10;99.90;;;;;;5045178;23;20151;-93
2024/01/17 05:21:44;;;;;;;2.07;0.80;;;0.00;99.90;;;;;;5021325;23;20155;-93
2024/01/17 05:23:45;;;;;;;2.90;1.43;;;-0.10;99.90;;;;;;5021224;23;20171;-93
2024/01/17 05:25:46;;;;;;;2.20;1.13;;;0.00;99.90;;;;;;5068679;23;20173;-93
2024/01/17 05:27:51;;;;;;;0.83;0.50;;;0.10;99.90;;;;;;5044743;23;20146;-94
2024/01/17 05:29:52;;;;;;;3.10;1.17;;;0.00;99.90;;;;;;5020884;23;20194;-95
2024/01/17 05:31:53;;;;;;;1.07;0.83;;;-0.10;99.90;;;;;;5020911;23;20232;-94
2024/01/17 05:33:54;;;;;;;6.00;1.47;;;-0.10;99.90;;;;;;5045035;23;20234;-94
2024/01/17 05:35:54;;;;;;;2.80;1.20;;;-0.10;99.90;;;;;;5021383;23;20518;-93
2024/01/17 05:37:55;;;;;;;3.13;1.10;;;-0.20;99.90;;;;;;5021179;23;20154;-94
2024/01/17 05:39:56;;;;;;;1.40;0.87;;;-0.30;99.90;;;;;;5021133;23;20613;-94
2024/01/17 05:41:57;;;;;;;2.07;1.30;;;-0.40;99.90;;;;;;5044671;23;20567;-94
2024/01/17 05:43:58;;;;;;;1.67;0.93;;;-0.50;99.90;;;;;;5021008;23;20151;-94
2024/01/17 05:45:59;;;;;;;0.70;0.63;;;-0.40;99.90;;;;;;5020922;23;20178;-94
2024/01/17 05:48:00;;;;;;;1.33;0.77;;;-0.40;99.90;;;;;;5021227;23;20151;-94
2024/01/17 05:50:09;;;;;;;2.70;1.17;;;-0.50;99.90;;;;;;5021575;23;20186;-93
2024/01/17 05:52:10;;;;;;;2.43;1.33;;;-0.50;99.90;;;;;;5044901;23;20621;-94
2024/01/17 05:54:11;;;;;;;1.03;0.90;;;-0.40;99.90;;;;;;5045080;23;20205;-93
2024/01/17 05:56:11;;;;;;;1.47;0.70;;;-0.20;99.90;;;;;;5020723;23;20191;-93
2024/01/17 05:58:12;;;;;;;1.33;0.90;;;-0.10;99.90;;;;;;5021254;23;20161;-93
2024/01/17 06:00:14;;;;;;;0.87;0.77;;;0.10;99.90;;;;;;5021099;23;20538;-93
2024/01/17 06:02:15;;;;;;;1.73;0.80;;;0.10;99.90;;;;;;5021053;23;20163;-95
2024/01/17 06:04:16;;;;;;;1.90;0.80;;;0.20;99.90;;;;;;5044882;23;20210;-95
2024/01/17 06:06:17;;;;;;;3.80;1.63;;;0.20;99.90;;;;;;5021088;23;20181;-93
2024/01/17 06:08:18;;;;;;;2.23;1.40;;;0.20;99.90;;;;;;5020626;23;20600;-95
2024/01/17 06:10:19;;;;;;;3.20;1.47;;;0.60;99.90;;;;;;5044912;23;20158;-93
2024/01/17 06:12:20;;;;;;;3.43;0.97;;;0.70;99.90;;;;;;5044824;23;20165;-92
2024/01/17 06:14:21;;;;;;;2.97;1.10;;;1.00;99.90;;;;;;5021107;23;20167;-93
2024/01/17 06:16:22;;;;;;;3.37;1.33;;;1.00;99.90;;;;;;5044892;23;20655;-93
2024/01/17 06:18:22;;;;;;;2.63;0.73;;;1.50;99.90;;;;;;5020969;23;20236;-93
2024/01/17 06:20:23;;;;;;;3.17;1.10;;;1.90;99.90;;;;;;5022394;23;20154;-94
2024/01/17 06:22:24;;;;;;;2.73;1.43;;;2.20;99.90;;;;;;5071020;23;20157;-93
2024/01/17 06:24:32;;;;;;;1.87;1.03;;;2.10;99.90;;;;;;5051651;23;20684;-94
2024/01/17 06:26:33;;;;;;;8.97;1.60;;;2.00;99.90;;;;;;5024791;23;20170;-94
2024/01/17 06:28:37;;;;;;;3.43;0.93;;;2.00;99.90;;;;;;5050016;23;20200;-94
2024/01/17 06:30:41;;;;;;;2.53;1.07;;;2.10;99.90;;;;;;5051595;23;20158;-93
2024/01/17 06:32:42;;;;;;;3.47;1.20;;;2.10;99.90;;;;;;5050548;23;20178;-95
2024/01/17 06:34:45;;;;;;;1.73;0.87;;;2.30;99.90;;;;;;5028123;23;20155;-94
2024/01/17 06:36:46;;;;;;;2.30;1.10;;;2.30;99.90;;;;;;5049984;23;20184;-91
2024/01/17 06:38:47;;;;;;;1.20;0.87;;;2.20;99.90;;;;;;5033325;23;20151;-93
2024/01/17 06:40:48;;;;;;;2.83;0.97;;;1.90;99.90;;;;;;5034777;23;20178;-94
2024/01/17 06:42:52;;;;;;;0.80;0.70;;;1.40;99.90;;;;;;5061167;23;20165;-94
2024/01/17 06:44:53;;;;;;;2.00;1.03;;;0.60;99.90;;;;;;5038314;23;20165;-94
2024/01/17 06:46:59;;;;;;;8.60;0.97;;;0.10;99.90;;;;;;5062628;23;20177;-94
2024/01/17 06:49:01;;;;;;;1.90;0.93;;;-0.10;99.90;;;;;;5037315;23;20234;-94
2024/01/17 06:51:04;;;;;;;1.63;1.27;;;-0.30;99.90;;;;;;5060776;23;20162;-94
2024/01/17 06:53:05;;;;;;;1.47;0.60;;;-0.40;99.90;;;;;;5059654;23;20146;-93
2024/01/17 06:55:07;;;;;;;3.47;1.20;;;-0.50;99.90;;;;;;5060862;23;20165;-94
2024/01/17 06:57:09;;;;;;;1.00;0.67;;;-0.50;99.90;;;;;;5060402;23;20170;-93
2024/01/17 06:59:10;;;;;;;1.67;1.00;;;-0.50;99.90;;;;;;5059605;23;20164;-93
2024/01/17 07:01:11;;;;;;;1.40;0.80;;;-0.50;99.90;;;;;;5059679;23;20248;-93
2024/01/17 07:03:12;;;;;;;2.10;1.27;;;-0.40;99.90;;;;;;5080024;23;20263;-92
2024/01/17 07:05:14;;;;;;;1.57;0.90;;;-0.30;99.90;;;;;;5034765;23;20154;-93
2024/01/17 07:07:15;;;;;;;3.07;1.13;;;-0.30;99.90;;;;;;5056779;23;20154;-93
2024/01/17 07:09:18;;;;;;;6.47;0.97;;;-0.20;99.90;;;;;;5011174;23;20206;-92
2024/01/17 07:11:20;;;;;;;2.97;1.20;;;-0.30;99.90;;;;;;5036191;23;20242;-93
2024/01/17 07:13:22;;;;;;;0.80;0.80;;;-0.30;99.90;;;;;;5060096;23;20157;-94
2024/01/17 07:15:23;;;;;;;3.17;1.33;;;-0.30;99.90;;;;;;5061171;23;20181;-93
2024/01/17 07:17:25;;;;;;;2.97;1.20;;;-0.30;99.90;;;;;;5082302;23;20154;-94
2024/01/17 07:19:26;;;;;;;2.37;1.17;;;-0.40;99.90;;;;;;5035123;23;20163;-94
2024/01/17 07:21:30;;;;;;;0.60;0.60;;;-0.40;99.90;;;;;;5084902;23;20169;-93
2024/01/17 07:23:32;;;;;;;1.57;0.70;;;-0.40;99.90;;;;;;5036099;23;20600;-94
2024/01/17 07:25:34;;;;;;;1.40;0.90;;;-0.40;99.90;;;;;;5059865;23;20166;-93
2024/01/17 07:27:35;;;;;;;1.53;0.60;;;-0.40;99.90;;;;;;5035380;23;20159;-93
2024/01/17 07:29:37;;;;;;;1.17;0.90;;;-0.40;99.90;;;;;;5032811;23;20258;-93
2024/01/17 07:31:39;;;;;;;2.53;1.20;;;-0.40;99.90;;;;;;5083581;23;20158;-94
2024/01/17 07:33:40;;;;;;;1.87;0.70;;;-0.50;99.90;;;;;;5060131;23;20166;-94
2024/01/17 07:35:41;;;;;;;2.30;1.17;;;-0.50;99.90;;;;;;5059528;23;20182;-93
2024/01/17 07:37:42;;;;;;;3.30;1.10;;;-0.50;99.90;;;;;;5034048;23;20154;-92
2024/01/17 07:39:43;;;;;;;3.67;1.20;;;-0.40;99.90;;;;;;5032437;23;20245;-92
2024/01/17 07:41:46;;;;;;;6.47;2.00;;;-0.40;99.90;;;;;;5057101;23;20214;-93
2024/01/17 07:43:48;;;;;;;0.90;0.70;;;-0.30;99.90;;;;;;5058109;23;20210;-93
2024/01/17 07:45:50;;;;;;;1.97;1.07;;;-0.30;99.90;;;;;;5033350;23;20178;-93
2024/01/17 07:47:52;;;;;;;1.43;0.43;;;-0.10;99.90;;;;;;5058499;23;20155;-93
2024/01/17 07:49:55;;;;;;;2.57;1.27;;;0.00;99.90;;;;;;5060668;23;20193;-92
2024/01/17 07:51:59;;;;;;;1.87;0.70;;;0.00;99.90;;;;;;5084764;23;20153;-93
2024/01/17 07:54:00;;;;;;;1.27;0.83;;;-0.10;99.90;;;;;;5035107;23;20163;-93
2024/01/17 07:56:04;;;;;;;0.97;0.57;;;0.00;99.90;;;;;;5083070;23;20181;-94
2024/01/17 07:58:05;;;;;;;1.90;0.90;;;0.00;99.90;;;;;;5012886;23;20610;-94
2024/01/17 08:00:08;;;;;;;1.90;1.43;;;0.00;99.90;;;;;;5060728;23;20166;-94
2024/01/17 08:02:17;;;;;;;4.63;1.20;;;0.50;99.90;;;;;;5058892;23;20150;-94
2024/01/17 08:04:18;;;;;;;3.13;1.53;;;1.50;99.90;;;;;;5059892;23;20174;-94
2024/01/17 08:06:19;;;;;;;2.97;1.40;;;1.90;99.90;;;;;;5059639;23;20177;-93
2024/01/17 08:08:21;;;;;;;6.20;1.87;;;1.60;99.90;;;;;;5060982;23;20154;-94
2024/01/17 08:10:24;;;;;;;2.43;1.40;;;1.80;99.90;;;;;;5085514;23;20190;-93
2024/01/17 08:12:26;;;;;;;2.00;1.60;;;2.10;99.90;;;;;;5061364;23;20147;-93
2024/01/17 08:14:29;;;;;;;2.97;2.00;;;2.30;99.90;;;;;;5061729;23;20178;-93
2024/01/17 08:16:30;;;;;;;7.87;1.50;;;2.30;99.90;;;;;;5060131;23;20178;-93
2024/01/17 08:18:31;;;;;;;6.07;1.37;;;2.00;99.90;;;;;;5034636;23;20186;-94
2024/01/17 08:20:33;;;;;;;3.23;1.80;;;1.90;99.90;;;;;;5035793;23;20159;-94
2024/01/17 08:22:34;;;;;;;13.10;2.50;;;1.40;99.90;;;;;;5036381;23;20188;-93
2024/01/17 08:24:36;;;;;;;2.83;1.37;;;1.00;99.90;;;;;;5036068;23;20167;-95
2024/01/17 08:26:44;;;;;;;2.73;1.50;;;0.80;99.90;;;;;;5035041;23;20941;-94
2024/01/17 08:28:50;;;;;;;3.73;1.50;;;1.10;99.90;;;;;;5061134;23;20261;-94
2024/01/17 08:30:52;;;;;;;7.10;1.73;;;2.00;99.90;;;;;;5037603;23;20151;-94
2024/01/17 08:32:55;;;;;;;2.63;1.13;;;2.40;99.90;;;;;;5085094;23;20206;-94
2024/01/17 08:35:00;;;;;;;1.40;1.20;;;2.70;99.90;;;;;;5037835;23;20155;-94
2024/01/17 08:37:03;;;;;;;1.70;1.20;;;2.70;99.90;;;;;;5035382;23;20178;-93
2024/01/17 08:39:05;;;;;;;3.00;1.30;;;2.00;99.90;;;;;;5059225;23;20158;-93
2024/01/17 08:41:08;;;;;;;2.70;1.30;;;1.40;99.90;;;;;;5034095;23;20163;-94
2024/01/17 08:43:11;;;;;;;2.07;1.00;;;1.00;99.90;;;;;;5033382;23;20155;-94
2024/01/17 08:45:15;;;;;;;5.77;1.57;;;0.70;99.90;;;;;;5062234;23;20151;-94
2024/01/17 08:47:21;;;;;;;2.83;1.93;;;1.00;99.90;;;;;;5036506;23;20146;-94
2024/01/17 08:49:24;;;;;;;2.67;1.43;;;1.50;99.90;;;;;;5037792;23;20194;-95
2024/01/17 08:51:28;;;;;;;3.20;1.03;;;1.10;99.90;;;;;;5062241;23;20151;-94
2024/01/17 08:53:31;;;;;;;2.73;1.23;;;1.10;99.90;;;;;;5035568;23;20154;-94
2024/01/17 08:55:36;;;;;;;5.73;1.73;;;1.40;99.90;;;;;;5034527;23;20173;-94
2024/01/17 08:57:37;;;;;;;2.30;1.50;;;1.10;99.90;;;;;;5055399;23;20166;-94
2024/01/17 08:59:39;;;;;;;6.20;1.80;;;1.00;99.90;;;;;;5035429;23;20147;-94
2024/01/17 09:01:40;;;;;;;3.43;1.47;;;1.10;99.90;;;;;;5057785;23;20185;-94
2024/01/17 09:03:43;;;;;;;3.20;1.50;;;1.20;99.90;;;;;;5033192;23;20222;-94
2024/01/17 09:05:45;;;;;;;5.83;1.83;;;1.60;99.90;;;;;;5057007;23;20178;-93
2024/01/17 09:07:50;;;;;;;3.30;1.80;;;1.90;99.90;;;;;;5034601;23;20229;-94
2024/01/17 09:09:52;;;;;;;11.57;1.87;;;1.80;99.90;;;;;;5036198;23;20199;-94
2024/01/17 09:11:54;;;;;;;7.70;2.43;;;1.50;99.90;;;;;;5059944;23;20154;-94
2024/01/17 09:13:55;;;;;;;3.23;1.33;;;1.70;99.90;;;;;;5035333;23;20163;-94
2024/01/17 09:15:58;;;;;;;5.17;1.57;;;2.10;99.90;;;;;;5062419;23;20166;-93
2024/01/17 09:18:02;;;;;;;6.93;1.97;;;2.80;99.90;;;;;;5060315;23;20150;-94
2024/01/17 09:20:06;;;;;;;2.97;1.90;;;3.10;99.90;;;;;;5061301;23;20150;-93
2024/01/17 09:22:09;;;;;;;4.73;2.00;;;3.30;99.90;;;;;;5033260;23;20155;-94
2024/01/17 09:24:10;;;;;;;4.90;2.17;;;2.70;99.90;;;;;;5059263;23;20150;-94
2024/01/17 09:26:12;;;;;;;3.93;1.87;;;2.50;99.90;;;;;;5035940;23;20187;-94
2024/01/17 09:28:18;;;;;;;1.83;1.47;;;2.30;99.90;;;;;;5038480;23;20183;-94
2024/01/17 09:30:23;;;;;;;4.83;1.50;;;2.40;99.90;;;;;;5060014;23;20232;-94
2024/01/17 09:32:25;;;;;;;2.50;1.43;;;2.80;99.90;;;;;;5035951;23;20151;-94
2024/01/17 09:34:29;;;;;;;5.67;2.27;;;3.00;99.90;;;;;;5058617;23;20161;-94
2024/01/17 09:36:31;;;;;;;6.07;1.83;;;2.90;99.90;;;;;;5032984;23;20175;-95
2024/01/17 09:38:32;;;;;;;2.57;1.10;;;2.80;99.90;;;;;;5033049;23;20163;-94
2024/01/17 09:40:33;;;;;;;5.33;2.00;;;2.60;99.90;;;;;;5030675;23;20158;-94
2024/01/17 09:42:35;;;;;;;7.87;2.37;;;2.50;99.90;;;;;;5057067;23;20159;-95
2024/01/17 09:44:37;;;;;;;5.27;1.53;;;2.40;99.90;;;;;;5056295;23;20227;-94
2024/01/17 09:46:43;;;;;;;3.00;1.73;;;2.40;99.90;;;;;;5080481;23;20177;-95
2024/01/17 09:48:47;;;;;;;4.53;1.40;;;2.30;99.90;;;;;;5056106;23;20190;-94
2024/01/17 09:50:49;;;;;;;2.57;1.57;;;2.40;99.90;;;;;;5033763;23;20165;-94
2024/01/17 09:52:54;;;;;;;2.93;1.60;;;2.50;99.90;;;;;;5056072;23;20174;-94
2024/01/17 09:54:57;;;;;;;4.23;1.93;;;2.50;99.90;;;;;;5053003;23;20158;-94
2024/01/17 09:56:59;;;;;;;3.73;1.47;;;2.50;99.90;;;;;;5030126;23;20190;-93
2024/01/17 09:59:21;;;;;;;6.23;2.00;;;2.40;99.90;;;;;;5056109;23;20206;-94
2024/01/17 10:01:23;;;;;;;5.17;2.30;;;2.40;99.90;;;;;;5031524;23;20143;-95
2024/01/17 10:03:26;;;;;;;4.37;1.90;;;2.30;99.90;;;;;;5053913;23;20158;-94
2024/01/17 10:05:35;;;;;;;3.93;2.00;;;2.20;99.90;;;;;;5055306;23;20197;-94
2024/01/17 10:07:37;;;;;;;7.63;2.87;;;2.00;99.90;;;;;;5055126;23;20158;-94
2024/01/17 10:09:40;;;;;;;3.67;1.70;;;1.90;99.90;;;;;;5058216;23;20189;-94
2024/01/17 10:11:41;;;;;;;9.17;2.40;;;1.90;99.90;;;;;;5032983;23;20261;-93
2024/01/17 10:13:44;;;;;;;7.10;2.43;;;1.90;99.90;;;;;;5007530;23;20152;-94
2024/01/17 10:15:50;;;;;;;4.50;2.20;;;1.90;99.90;;;;;;5029333;23;20171;-94
2024/01/17 10:17:51;;;;;;;6.30;2.03;;;1.90;99.90;;;;;;5027257;23;20159;-94
2024/01/17 10:19:52;;;;;;;5.43;2.87;;;1.80;99.90;;;;;;5052430;23;20190;-94
2024/01/17 10:21:53;;;;;;;5.10;2.53;;;1.70;99.90;;;;;;5030585;23;20147;-94
2024/01/17 10:23:57;;;;;;;10.80;2.67;;;1.70;99.90;;;;;;5029352;23;20162;-94
2024/01/17 10:26:02;;;;;;;11.83;2.80;;;1.70;99.90;;;;;;5004296;23;20206;-94
2024/01/17 10:28:06;;;;;;;1.80;1.37;;;1.80;99.90;;;;;;5053145;23;20165;-96
2024/01/17 10:30:10;;;;;;;6.17;2.90;;;1.90;99.90;;;;;;5028396;23;20273;-93
2024/01/17 10:32:11;;;;;;;4.60;1.53;;;2.10;99.90;;;;;;5050243;23;20154;-95
2024/01/17 10:34:15;;;;;;;5.63;2.43;;;2.10;99.90;;;;;;5026363;23;20155;-92
2024/01/17 10:36:19;;;;;;;3.73;2.23;;;1.90;99.90;;;;;;5049607;23;20229;-94